Metar väderdata för luftfart     LIEE Cagliari Elmas Airport
Temperatur
8°C Temperatur
4°C Daggpunkt
76% Fuktighet



Vind
10 KM/T
6 MPH
3 M/S
5 KTS



350°
Norr
Nuvarande omständigheter

Klar Klar
Tryck 1023.92 (hPa) - 30.24 (inHg)
Synlighet 6.2 (mil) - 10 (km)
Flygplats
Flygplatskod LIEE

Plats: Cagliari Elmas Airport
Distans: 14 (km)

Metar:
LIEE 301820Z 35005KT CAVOK 08/04 Q1024

Tid: 30-11-2021 19:20 CET